createdAt,value
2019-01-31T16:16:22.156Z,1.31
2019-01-31T16:20:23.515Z,1.20
2019-01-31T16:24:24.925Z,1.03
2019-01-31T16:28:26.162Z,0.92
2019-01-31T16:32:27.590Z,0.80
2019-01-31T16:36:29.056Z,0.73
2019-01-31T16:40:30.414Z,0.80
2019-01-31T16:44:32.021Z,0.73
2019-01-31T16:48:35.997Z,0.67
2019-01-31T16:52:37.321Z,0.68
2019-01-31T16:56:38.822Z,0.70
2019-01-31T17:00:40.120Z,0.67
2019-01-31T17:04:41.431Z,0.72
2019-01-31T17:08:42.902Z,0.47
2019-01-31T17:12:44.409Z,0.48
2019-01-31T17:16:45.771Z,0.44
2019-01-31T17:20:47.244Z,0.38
2019-01-31T17:24:48.675Z,0.27
2019-01-31T17:28:50.286Z,0.11
2019-01-31T17:32:52.280Z,0.03
2019-01-31T17:36:53.704Z,0.02
2019-01-31T17:40:55.254Z,-0.14
2019-01-31T17:44:56.801Z,-0.23
2019-01-31T17:48:58.270Z,-0.25
2019-01-31T17:52:59.711Z,-0.31
2019-01-31T17:57:01.067Z,-0.41
2019-01-31T18:01:02.795Z,-0.45
2019-01-31T18:05:07.952Z,-0.44
2019-01-31T18:09:09.501Z,-0.48
2019-01-31T18:13:10.925Z,-0.67
2019-01-31T18:17:12.934Z,-0.79
2019-01-31T18:21:14.681Z,-0.73
2019-01-31T18:25:16.119Z,-0.65
2019-01-31T18:29:18.534Z,-0.50
2019-01-31T18:33:19.989Z,-0.41
2019-01-31T18:37:21.269Z,-0.31
2019-01-31T18:41:22.796Z,-0.34
2019-01-31T18:45:30.315Z,-0.23
2019-01-31T18:49:31.877Z,-0.21
2019-01-31T18:53:33.097Z,-0.13
2019-01-31T18:57:34.618Z,0.08
2019-01-31T19:01:36.239Z,0.42
2019-01-31T19:05:37.736Z,0.73
2019-01-31T19:09:39.151Z,0.67
2019-01-31T19:13:40.604Z,0.57
2019-01-31T19:17:42.031Z,0.46
2019-01-31T19:21:43.676Z,0.31
2019-01-31T19:25:47.242Z,0.14
2019-01-31T19:29:48.684Z,0.24
2019-01-31T19:33:51.794Z,0.39
2019-01-31T19:38:01.458Z,0.49
2019-01-31T19:41:57.501Z,0.54
2019-01-31T19:45:58.982Z,0.58
2019-01-31T19:50:00.551Z,0.73
2019-01-31T19:54:02.000Z,0.73
2019-01-31T19:58:03.831Z,0.75
2019-01-31T20:02:05.383Z,0.74
2019-01-31T20:06:06.989Z,0.77
2019-01-31T20:10:15.353Z,0.76
2019-01-31T20:14:16.734Z,0.89
2019-01-31T20:18:18.095Z,0.95
2019-01-31T20:22:19.700Z,1.03
2019-01-31T20:26:21.315Z,1.07
2019-01-31T20:30:24.873Z,1.17
2019-01-31T20:34:26.310Z,1.21
2019-01-31T20:38:27.958Z,1.25
2019-01-31T20:42:29.415Z,1.24
2019-01-31T20:46:39.680Z,1.20
2019-01-31T20:50:36.276Z,1.18
2019-01-31T20:54:37.703Z,1.16
2019-01-31T20:58:39.017Z,1.15
2019-01-31T21:02:40.491Z,1.17
2019-01-31T21:06:42.057Z,1.22
2019-01-31T21:10:43.476Z,1.25
2019-01-31T21:14:44.910Z,1.24
2019-01-31T21:18:46.762Z,1.24
2019-01-31T21:22:48.575Z,1.33
2019-01-31T21:26:50.106Z,1.34
2019-01-31T21:30:51.380Z,1.37
2019-01-31T21:34:52.714Z,1.33
2019-01-31T21:38:54.051Z,1.31
2019-01-31T21:42:55.325Z,1.39
2019-01-31T21:47:03.153Z,1.55
2019-01-31T21:51:00.074Z,1.56
2019-01-31T21:55:01.470Z,1.57
2019-01-31T21:59:03.125Z,1.56
2019-01-31T22:03:05.479Z,1.40
2019-01-31T22:07:06.860Z,1.42
2019-01-31T22:11:07.997Z,1.44
2019-01-31T22:15:13.244Z,1.45
2019-01-31T22:19:14.667Z,1.53
2019-01-31T22:23:16.226Z,1.52
2019-01-31T22:27:17.498Z,1.61
2019-01-31T22:31:18.888Z,1.54
2019-01-31T22:35:20.329Z,1.58
2019-01-31T22:39:21.687Z,1.63
2019-01-31T22:43:23.091Z,1.69
2019-01-31T22:47:26.259Z,1.78
2019-01-31T22:51:27.747Z,1.85
2019-01-31T22:55:29.012Z,1.79
2019-01-31T22:59:30.549Z,1.79
2019-01-31T23:03:31.996Z,1.70
2019-01-31T23:07:33.404Z,1.78
2019-01-31T23:11:34.859Z,1.86
2019-01-31T23:15:36.209Z,1.91
2019-01-31T23:19:37.682Z,1.98
2019-01-31T23:23:38.939Z,1.98
2019-01-31T23:27:40.209Z,2.03
2019-01-31T23:31:41.873Z,2.09
2019-01-31T23:35:43.149Z,2.07
2019-01-31T23:39:44.457Z,2.14
2019-01-31T23:43:45.831Z,2.25
2019-01-31T23:47:48.860Z,2.27
2019-01-31T23:51:50.306Z,2.33
2019-01-31T23:55:51.559Z,2.36
2019-01-31T23:59:53.002Z,2.30
